Řízení letového provozu České republiky
Letiste: LKLN Aktualizace: 25.09.2016 05:08:08  UTC
 SPECI LKLN 25.09. 05:00 ...
SPECI LKLN 250500Z AUTO 00000KT 0350 FG VV001 05/04 Q1024=
 METAR LKLN 25.09. 05:00 ...
METAR LKLN 250500Z AUTO 00000KT 1300 PRFG OVC001 05/04 Q1024=